• Join FlightAware (Why Join?)
  • Login
  • US Flag 
02:52AM EDT


 

Airport Tracker/Info


-or-


 

Live Flight TrackerFlight Track Log ✈ N45NS ✈ 31-Oct-2013 ✈ KSAT - KSGJ

Flight Track Log - Related Links

Times and Time Zones

All times are in EDT time to prevent confusion due to time zone crossing. See the N45NS flight status page for this flight to view local times or setup timezone preferences in your user account.

Time Position Orientation Groundspeed Altitude Reporting Facility
EDT Latitude Longitude Course Direction KTS MPH feet Rate Location/Type
12:02PM 29.5436 -98.4853 308° West 152 175 1,400  Level Houston Center
12:03PM 29.5753 -98.5319 308° West 218 251 3,800 2,700 Climbing Houston Center
12:04PM 29.6028 -98.5608 318° Northwest 223 257 5,700 3,000 Climbing Houston Center
12:04PM 29.6286 -98.5642 354° North 252 290 6,900 3,180 Climbing Houston Center
12:05PM 29.6747 -98.5428 22° Northeast 262 302 9,000 2,880 Climbing Houston Center
12:05PM 29.6831 -98.5192 68° East 282 325 9,800 2,460 Climbing Houston Center
12:06PM 29.6822 -98.4553 91° East 280 322 11,600 2,340 Climbing Houston Center
12:07PM 29.6775 -98.3603 93° East 295 339 13,900 2,280 Climbing Houston Center
12:08PM 29.6733 -98.2506 92° East 316 364 16,400 2,340 Climbing Houston Center
12:09PM 29.6683 -98.1486 93° East 320 368 18,800 2,340 Climbing Houston Center
12:10PM 29.6628 -98.0369 93° East 324 373 21,300 2,460 Climbing Houston Center
12:11PM 29.6586 -97.9386 93° East 310 357 23,900 2,340 Climbing Houston Center
12:12PM 29.6558 -97.8422 92° East 303 349 26,200 2,040 Climbing Houston Center
12:13PM 29.6569 -97.7528 89° East 301 346 28,200 1,620 Climbing Houston Center
12:14PM 29.6581 -97.6581 89° East 297 342 29,600 1,200 Climbing Houston Center
12:15PM 29.6589 -97.5322 90° East 322 371 30,800 1,140 Climbing Houston Center
12:16PM 29.6600 -97.4186 89° East 349 402 32,000 1,200 Climbing Houston Center
12:17PM 29.6597 -97.3039 90° East 358 412 33,400 1,260 Climbing Houston Center
12:18PM 29.6614 -97.1867 89° East 364 419 34,700 1,260 Climbing Houston Center
12:19PM 29.6617 -97.0692 90° East 366 421 36,100 1,200 Climbing Houston Center
12:20PM 29.6617 -96.9525 90° East 364 419 37,300 1,020 Climbing Houston Center
12:21PM 29.6619 -96.8339 90° East 366 421 38,300 780 Climbing Houston Center
12:22PM 29.6625 -96.7128 90° East 373 429 39,000 300 Climbing Houston Center
12:23PM 29.6619 -96.5597 90° East 390 449 39,000 420 Level Houston Center
12:24PM 29.6617 -96.4242 90° East 416 479 39,900 900 Climbing Houston Center
12:25PM 29.6608 -96.2911 90° East 417 480 40,900 540 Climbing Houston Center
12:26PM 29.6603 -96.1556 90° East 422 486 41,100 720 Climbing Houston Center
12:27PM 29.6608 -96.0189 90° East 427 491 42,500 1,200 Climbing Houston Center
12:29PM 29.6594 -95.8939 91° East 406 467 43,600 720 Climbing Houston Center
12:30PM 29.6586 -95.7458 90° East 388 447 44,000 120 Climbing Houston Center
12:31PM 29.6592 -95.6253 90° East 378 435 43,900  Descending Houston Center
12:32PM 29.6578 -95.5044 91° East 379 436 44,100 120 Climbing Houston Center
12:33PM 29.6769 -95.3839 80° East 386 444 44,200  Climbing Houston Center
12:34PM 29.7181 -95.2683 68° East 384 442 44,100 -300 Descending Houston Center
12:35PM 29.7536 -95.1447 72° East 392 451 43,700 -300 Descending Houston Center
12:36PM 29.7878 -95.0236 72° East 394 453 43,600 60 Descending Houston Center
12:37PM 29.8150 -94.9031 75° East 389 448 43,900 180 Climbing Houston Center
12:38PM 29.8333 -94.7814 80° East 387 445 44,000 -60 Climbing Houston Center
12:39PM 29.8564 -94.6347 80° East 386 444 43,800  Descending Houston Center
12:40PM 29.8753 -94.5094 80° East 397 457 44,000 180 Climbing Houston Center
12:41PM 29.8933 -94.3864 80° East 392 451 44,200 -300 Climbing Houston Center
12:42PM 29.9128 -94.2586 80° East 404 465 43,500 -660 Descending Houston Center
12:43PM 29.9347 -94.1097 80° East 450 518 42,900 -300 Descending Houston Center
12:44PM 29.9575 -93.9631 80° East 466 536 43,000  Climbing Houston Center
12:45PM 29.9781 -93.8150 81° East 471 542 43,000  Level Houston Center
12:46PM 30.0050 -93.6328 80° East 484 557 43,000  Level Houston Center
12:47PM 30.0253 -93.4831 81° East 481 554 43,000  Level Houston Center
12:48PM 30.0464 -93.3353 81° East 477 549 43,000  Level Houston Center
12:49PM 30.0683 -93.1869 80° East 474 545 43,000  Level Houston Center
12:50PM 30.0894 -93.0397 81° East 472 543 43,000  Level Houston Center
12:51PM 30.1142 -92.8614 81° East 470 541 43,000  Level Houston Center
12:52PM 30.1358 -92.7125 80° East 472 543 43,000  Level Houston Center
12:53PM 30.1558 -92.5644 81° East 470 541 43,000  Level Houston Center
12:54PM 30.1764 -92.4172 81° East 468 539 43,000  Level Houston Center
12:55PM 30.1956 -92.2692 81° East 467 537 43,000  Level Houston Center
12:56PM 30.2178 -92.1108 81° East 464 534 43,000  Level Houston Center
12:57PM 30.2375 -91.9656 81° East 462 532 43,000  Level Houston Center
12:58PM 30.2567 -91.8211 81° East 457 526 43,000  Level Houston Center
12:59PM 30.2775 -91.6547 82° East 457 526 43,000  Level Houston Center
01:01PM 30.2975 -91.5100 81° East 457 526 43,000  Level Houston Center
01:02PM 30.3153 -91.3650 82° East 456 525 43,000  Level Houston Center
01:03PM 30.3342 -91.2189 81° East 459 528 43,000  Level Houston Center
01:04PM 30.3558 -91.0436 82° East 459 528 43,000  Level Houston Center
01:05PM 30.3744 -90.8958 82° East 463 533 43,000  Level Houston Center
01:06PM 30.3925 -90.7494 82° East 461 531 43,000  Level Houston Center
01:07PM 30.4117 -90.6014 81° East 464 534 43,000  Level Houston Center
01:08PM 30.4292 -90.4528 82° East 465 535 43,000  Level Houston Center
01:09PM 30.4464 -90.3058 82° East 463 533 43,000  Level Houston Center
01:10PM 30.4631 -90.1578 83° East 463 533 43,000  Level Houston Center
01:11PM 30.4858 -89.9797 82° East 461 531 43,000  Level Houston Center
01:12PM 30.5064 -89.8292 81° East 462 532 43,000  Level Houston Center
01:13PM 30.5219 -89.6758 83° East 466 536 43,000  Level Houston Center
01:14PM 30.5206 -89.5244 91° East 463 533 43,000  Level Houston Center
01:15PM 30.5133 -89.3742 93° East 466 536 43,000  Level Houston Center
01:16PM 30.5067 -89.2231 93° East 469 540 43,000  Level Houston Center
01:17PM 30.5008 -89.0722 93° East 469 540 43,000  Level Houston Center
01:18PM 30.4956 -88.9225 92° East 467 537 43,000  Level Houston Center
01:19PM 30.4847 -88.7733 95° East 466 536 43,000  Level Houston Center
01:20PM 30.4789 -88.5958 92° East 464 534 43,000  Level Houston Center
01:21PM 30.4725 -88.4483 93° East 462 532 43,000  Level Houston Center
01:22PM 30.4661 -88.3008 93° East 462 532 43,000  Level Houston Center
01:23PM 30.4597 -88.1544 93° East 460 529 43,000  Level Houston Center
01:24PM 30.4525 -88.0081 93° East 460 529 43,000  Level Houston Center
01:25PM 30.4439 -87.8325 93° East 459 528 43,000  Level Houston Center
01:26PM 30.4369 -87.6858 93° East 460 529 43,000  Level Houston Center
01:27PM 30.4300 -87.5400 93° East 458 527 43,000  Level Houston Center
01:28PM 30.4278 -87.3947 91° East 456 525 43,000  Level Houston Center
01:29PM 30.4422 -87.2492 83° East 456 525 43,000  Level Houston Center
01:30PM 30.4542 -87.1050 84° East 453 521 43,000  Level Houston Center
01:31PM 30.4678 -86.9319 85° East 452 520 43,000  Level Houston Center
01:33PM 30.4822 -86.7872 83° East 453 521 43,000  Level Houston Center
01:34PM 30.4944 -86.6453 84° East 455 524 43,000  Level Houston Center
01:35PM 30.4983 -86.4606 89° East 451 519 43,000  Level Jacksonville Center
01:36PM 30.4858 -86.3131 96° East 451 519 43,000  Level Jacksonville Center
01:37PM 30.4731 -86.1656 96° East 456 525 43,000  Level Jacksonville Center
01:38PM 30.4600 -86.0156 96° East 466 536 43,000 -360 Level Jacksonville Center
01:39PM 30.4469 -85.8683 96° East 466 536 42,300 -900 Descending Jacksonville Center
01:40PM 30.4336 -85.7186 96° East 466 536 41,300 -960 Descending Jacksonville Center
01:41PM 30.4181 -85.5664 97° East 466 536 40,400 -960 Descending Jacksonville Center
01:42PM 30.4064 -85.4142 95° East 466 536 39,400 -1,020 Descending Jacksonville Center
01:43PM 30.3925 -85.2694 96° East 461 531 38,400 -1,020 Descending Jacksonville Center
01:44PM 30.3783 -85.1269 97° East 455 524 37,400 -1,020 Descending Jacksonville Center
01:45PM 30.3622 -84.9847 97° East 449 517 36,400 -1,020 Descending Jacksonville Center
01:46PM 30.3497 -84.8447 96° East 441 507 35,400 -1,020 Descending Jacksonville Center
01:47PM 30.3350 -84.7047 97° East 441 507 34,400 -1,020 Descending Jacksonville Center
01:48PM 30.3183 -84.5625 98° East 446 513 33,400 -960 Descending Jacksonville Center
01:49PM 30.3075 -84.4228 95° East 446 513 32,500 -960 Descending Jacksonville Center
01:50PM 30.2944 -84.2856 96° East 446 513 31,500 -1,080 Descending Jacksonville Center
01:51PM 30.2792 -84.1361 97° East 440 506 30,400 -960 Descending Jacksonville Center
01:52PM 30.2636 -84.0061 98° East 435 501 29,600 -900 Descending Jacksonville Center
01:53PM 30.2503 -83.8592 96° East 448 516 28,700 -960 Descending Jacksonville Center
01:54PM 30.2325 -83.7125 98° East 459 528 27,700 -1,020 Descending Jacksonville Center
01:55PM 30.2167 -83.5656 97° East 464 534 26,700 -1,020 Descending Jacksonville Center
01:56PM 30.2028 -83.4214 96° East 464 534 25,700 -1,020 Descending Jacksonville Center
01:57PM 30.1886 -83.2819 97° East 456 525 24,700 -1,020 Descending Jacksonville Center
01:58PM 30.1722 -83.1400 98° East 448 516 23,700 -900 Descending Jacksonville Center
01:59PM 30.1558 -83.0006 98° East 448 516 23,000 -360 Descending Jacksonville Center
02:00PM 30.1411 -82.8614 97° East 443 510 23,000 -600 Level Jacksonville Center
02:01PM 30.1244 -82.7219 98° East 443 510 21,800 -1,260 Descending Jacksonville Center
02:01PM 30.1139 -82.6619 101° East 446 513 21,300 -1,380 Descending Jacksonville Center
02:02PM 30.1094 -82.5828 94° East 448 516 20,500 -1,500 Descending Jacksonville Center
02:02PM 30.1053 -82.5564 100° East 436 502 20,100 -1,500 Descending Jacksonville Center
02:03PM 30.0925 -82.4533 98° East 427 491 19,000 -1,620 Descending Jacksonville Center
02:03PM 30.0881 -82.4172 98° East 402 463 18,500 -1,440 Descending Jacksonville Center
02:04PM 30.0772 -82.3261 98° East 413 475 17,600 -1,380 Descending Jacksonville Center
02:04PM 30.0731 -82.2853 97° East 398 458 17,100 -1,740 Descending Jacksonville Center
02:05PM 30.0578 -82.1656 98° East 384 442 15,500 -1,740 Descending Jacksonville Center
02:06PM 30.0489 -82.0719 96° East 376 433 14,000 -1,920 Descending Jacksonville Center
02:06PM 30.0444 -82.0431 100° East 380 437 13,600 -2,040 Descending Jacksonville Center
02:07PM 30.0333 -81.9519 98° East 367 422 12,000 -1,980 Descending Jacksonville Center
02:07PM 30.0269 -81.9139 101° East 370 426 11,400 -2,040 Descending Jacksonville Center
02:08PM 30.0200 -81.8394 96° East 362 417 10,000 -1,980 Descending Jacksonville Center
02:08PM 30.0156 -81.8083 99° East 359 413 9,600 -1,920 Descending Jacksonville Center
02:09PM 30.0067 -81.7342 98° East 344 396 8,100 -2,100 Descending Jacksonville Center
02:09PM 30.0022 -81.7053 100° East 286 329 7,300 -2,160 Descending Jacksonville Center
02:10PM 29.9928 -81.6144 97° East 257 296 5,100 -2,340 Descending Jacksonville Center
02:11PM 29.9861 -81.5664 99° East 277 319 3,600 -2,100 Descending Jacksonville Center
02:11PM 29.9817 -81.5331 99° East 261 300 3,000 -960 Descending Jacksonville Center
02:12PM 29.9869 -81.4536 86° East 247 284 2,300 -1,020 Descending Jacksonville Center
02:13PM 29.9906 -81.3889 86° East 185 213 1,000 -1,320 Descending Jacksonville Center
02:15PM 29.9592 -81.3397 101° East  Level Estimated
02:22PM 29.9592 -81.3397 101° East  Level Estimated